createdAt,value
2023-04-16T00:00:09.981Z,20.02
2023-04-16T00:03:23.995Z,20.00
2023-04-16T00:06:18.022Z,20.04
2023-04-16T00:09:11.735Z,20.07
2023-04-16T00:12:06.257Z,19.99
2023-04-16T00:14:59.814Z,20.03
2023-04-16T00:17:53.420Z,20.01
2023-04-16T00:20:47.103Z,20.02
2023-04-16T00:23:40.836Z,20.10
2023-04-16T00:26:34.536Z,20.07
2023-04-16T00:29:28.786Z,20.13
2023-04-16T00:32:22.432Z,20.17
2023-04-16T00:35:16.372Z,20.24
2023-04-16T00:38:10.108Z,20.16
2023-04-16T00:41:03.654Z,20.24
2023-04-16T00:43:57.457Z,20.15
2023-04-16T00:46:51.922Z,20.28
2023-04-16T00:49:45.922Z,20.12
2023-04-16T00:52:40.952Z,20.20
2023-04-16T00:55:34.615Z,20.13
2023-04-16T00:58:29.501Z,20.09
2023-04-16T01:01:23.383Z,20.05
2023-04-16T01:04:17.219Z,20.04
2023-04-16T01:07:11.219Z,19.99
2023-04-16T01:10:05.486Z,19.89
2023-04-16T01:12:59.360Z,19.95
2023-04-16T01:15:53.142Z,19.94
2023-04-16T01:18:46.842Z,20.00
2023-04-16T01:21:40.623Z,19.99
2023-04-16T01:24:34.992Z,20.07
2023-04-16T01:27:28.977Z,20.01
2023-04-16T01:30:22.581Z,20.15
2023-04-16T01:33:18.020Z,20.21
2023-04-16T01:36:11.959Z,20.22
2023-04-16T01:39:05.649Z,20.03
2023-04-16T01:41:59.279Z,20.01
2023-04-16T01:44:52.830Z,20.00
2023-04-16T01:47:46.692Z,19.99
2023-04-16T01:50:40.365Z,20.00
2023-04-16T01:53:36.545Z,20.07
2023-04-16T01:56:30.764Z,20.37
2023-04-16T01:59:24.449Z,20.14
2023-04-16T02:02:19.372Z,20.17
2023-04-16T02:05:13.297Z,20.21
2023-04-16T02:08:07.365Z,20.13
2023-04-16T02:11:01.760Z,20.14
2023-04-16T02:13:55.377Z,20.15
2023-04-16T02:16:49.190Z,20.10
2023-04-16T02:19:42.904Z,20.01
2023-04-16T02:22:36.554Z,20.09
2023-04-16T02:25:30.294Z,20.07
2023-04-16T02:28:24.031Z,20.14
2023-04-16T02:31:19.589Z,20.22
2023-04-16T02:34:13.464Z,20.20
2023-04-16T02:37:07.174Z,20.10
2023-04-16T02:40:01.089Z,20.12
2023-04-16T02:42:55.169Z,20.04
2023-04-16T02:45:49.205Z,20.00
2023-04-16T02:48:43.225Z,20.02
2023-04-16T02:51:37.200Z,19.99
2023-04-16T02:54:30.808Z,20.10
2023-04-16T02:57:24.450Z,20.11
2023-04-16T03:00:18.870Z,20.01
2023-04-16T03:03:12.533Z,20.10
2023-04-16T03:06:06.527Z,20.08
2023-04-16T03:09:00.383Z,20.12
2023-04-16T03:11:54.146Z,20.02
2023-04-16T03:14:47.848Z,20.03
2023-04-16T03:17:41.501Z,20.08
2023-04-16T03:20:35.333Z,20.12
2023-04-16T03:23:29.236Z,20.11
2023-04-16T03:26:23.022Z,20.15
2023-04-16T03:29:16.686Z,20.09
2023-04-16T03:32:12.495Z,20.06
2023-04-16T03:35:06.974Z,20.08
2023-04-16T03:38:00.619Z,20.14
2023-04-16T03:40:54.776Z,20.24
2023-04-16T03:43:48.380Z,20.18
2023-04-16T03:46:41.986Z,20.17
2023-04-16T03:49:35.894Z,20.30
2023-04-16T03:52:29.921Z,20.19
2023-04-16T03:55:23.474Z,20.11
2023-04-16T03:58:17.075Z,20.16
2023-04-16T04:01:10.958Z,20.19
2023-04-16T04:04:05.387Z,20.17
2023-04-16T04:06:59.138Z,19.85
2023-04-16T04:09:52.730Z,19.94
2023-04-16T04:12:46.460Z,19.81
2023-04-16T04:15:40.011Z,19.77
2023-04-16T04:18:33.739Z,19.80
2023-04-16T04:21:28.323Z,19.59
2023-04-16T04:24:21.914Z,19.49
2023-04-16T04:27:15.591Z,19.53
2023-04-16T04:30:11.706Z,19.51
2023-04-16T04:33:05.563Z,19.51
2023-04-16T04:35:59.553Z,19.52
2023-04-16T04:38:53.511Z,19.45
2023-04-16T04:41:47.190Z,19.52
2023-04-16T04:44:40.883Z,19.48
2023-04-16T04:47:34.596Z,19.60
2023-04-16T04:50:28.765Z,19.93
2023-04-16T04:53:22.428Z,19.94
2023-04-16T04:56:16.431Z,19.94
2023-04-16T04:59:10.187Z,19.80
2023-04-16T05:02:04.882Z,19.60
2023-04-16T05:04:59.036Z,19.71
2023-04-16T05:07:52.745Z,19.72
2023-04-16T05:10:46.355Z,19.55
2023-04-16T05:13:39.963Z,19.57
2023-04-16T05:16:33.925Z,19.69
2023-04-16T05:19:27.752Z,19.75
2023-04-16T05:22:21.442Z,19.73
2023-04-16T05:25:19.547Z,19.62
2023-04-16T05:28:13.282Z,19.64
2023-04-16T05:31:07.227Z,19.55
2023-04-16T05:34:01.239Z,19.93
2023-04-16T05:36:56.120Z,19.76
2023-04-16T05:39:49.768Z,19.54
2023-04-16T05:42:43.693Z,19.53
2023-04-16T05:45:41.318Z,19.43
2023-04-16T05:48:35.231Z,19.45
2023-04-16T05:51:28.988Z,19.46
2023-04-16T05:54:22.961Z,19.52
2023-04-16T05:57:17.533Z,19.61
2023-04-16T06:00:13.462Z,19.46
2023-04-16T06:03:07.832Z,19.50
2023-04-16T06:06:01.941Z,19.41
2023-04-16T06:08:55.539Z,19.40
2023-04-16T06:11:49.361Z,19.37
2023-04-16T06:14:43.003Z,19.32
2023-04-16T06:17:36.738Z,19.39
2023-04-16T06:20:30.776Z,19.33
2023-04-16T06:23:24.483Z,19.50
2023-04-16T06:26:18.286Z,19.50
2023-04-16T06:29:12.406Z,19.34
2023-04-16T06:32:06.469Z,19.50
2023-04-16T06:35:00.303Z,19.50
2023-04-16T06:37:54.360Z,19.54
2023-04-16T06:40:49.354Z,19.53
2023-04-16T06:43:43.138Z,19.64
2023-04-16T06:46:36.973Z,19.61
2023-04-16T06:49:30.978Z,19.52
2023-04-16T06:52:24.827Z,19.48
2023-04-16T06:55:19.075Z,19.81
2023-04-16T06:58:12.650Z,19.82
2023-04-16T07:01:06.484Z,19.88
2023-04-16T07:04:00.841Z,19.61
2023-04-16T07:06:55.645Z,19.52
2023-04-16T07:09:49.289Z,19.78
2023-04-16T07:12:42.961Z,19.85
2023-04-16T07:15:37.691Z,19.80
2023-04-16T07:18:31.543Z,19.80
2023-04-16T07:21:26.169Z,19.86
2023-04-16T07:24:20.037Z,19.99
2023-04-16T07:27:13.972Z,19.95
2023-04-16T07:30:09.844Z,19.90
2023-04-16T07:33:04.199Z,19.43
2023-04-16T07:35:58.090Z,19.00
2023-04-16T07:38:37.107Z,19.36
2023-04-16T07:41:31.062Z,19.70
2023-04-16T07:44:24.799Z,19.67
2023-04-16T07:47:18.738Z,19.89
2023-04-16T07:50:14.206Z,19.99
2023-04-16T07:53:08.032Z,20.49
2023-04-16T07:56:01.697Z,20.29
2023-04-16T07:58:55.811Z,19.64
2023-04-16T08:01:49.785Z,19.22
2023-04-16T08:04:44.743Z,18.69
2023-04-16T08:07:39.395Z,19.40
2023-04-16T08:10:33.876Z,20.16
2023-04-16T08:13:28.405Z,20.41
2023-04-16T08:16:22.854Z,20.45
2023-04-16T08:19:17.104Z,20.32
2023-04-16T08:22:11.315Z,20.24
2023-04-16T08:25:05.966Z,20.35
2023-04-16T08:28:00.153Z,20.14
2023-04-16T08:30:55.075Z,20.59
2023-04-16T08:33:48.958Z,20.12
2023-04-16T08:36:42.782Z,19.98
2023-04-16T08:39:37.765Z,20.27
2023-04-16T08:42:37.071Z,20.43
2023-04-16T08:45:32.786Z,20.19
2023-04-16T08:48:30.138Z,19.84
2023-04-16T08:51:25.210Z,19.88
2023-04-16T08:54:27.656Z,19.98
2023-04-16T08:57:24.052Z,20.23
2023-04-16T09:00:19.922Z,20.61
2023-04-16T09:03:14.502Z,19.99
2023-04-16T09:06:09.887Z,20.00
2023-04-16T09:09:06.239Z,20.37
2023-04-16T09:12:00.445Z,19.97
2023-04-16T09:14:54.800Z,20.56
2023-04-16T09:17:48.806Z,20.24
2023-04-16T09:20:43.111Z,19.87
2023-04-16T09:23:38.467Z,19.86
2023-04-16T09:26:32.815Z,19.89
2023-04-16T09:29:40.854Z,20.07
2023-04-16T09:32:34.756Z,20.09
2023-04-16T09:35:28.576Z,19.62
2023-04-16T09:38:22.707Z,19.73
2023-04-16T09:41:17.730Z,19.74
2023-04-16T09:44:11.472Z,19.84
2023-04-16T09:47:08.956Z,20.11
2023-04-16T09:50:04.513Z,20.07
2023-04-16T09:53:04.729Z,20.11
2023-04-16T09:56:00.906Z,19.42
2023-04-16T09:59:00.930Z,18.44
2023-04-16T10:02:15.339Z,18.60
2023-04-16T10:05:16.702Z,18.22
2023-04-16T10:08:18.755Z,18.30
2023-04-16T10:11:12.882Z,18.80
2023-04-16T10:14:06.699Z,18.92
2023-04-16T10:17:01.150Z,18.94
2023-04-16T10:19:58.562Z,18.71
2023-04-16T10:22:54.067Z,18.66
2023-04-16T10:25:48.909Z,19.62
2023-04-16T10:28:43.343Z,19.61
2023-04-16T10:31:37.831Z,19.63
2023-04-16T10:34:32.619Z,19.29
2023-04-16T10:37:33.440Z,19.70
2023-04-16T10:40:30.951Z,19.92
2023-04-16T10:43:26.403Z,20.13
2023-04-16T10:46:25.050Z,19.76
2023-04-16T10:49:21.226Z,19.36
2023-04-16T10:52:18.207Z,19.42
2023-04-16T10:55:23.280Z,19.41
2023-04-16T10:58:36.873Z,19.79
2023-04-16T11:01:38.349Z,20.02
2023-04-16T11:04:36.989Z,20.05
2023-04-16T11:07:39.454Z,19.59
2023-04-16T11:10:59.447Z,19.84
2023-04-16T11:13:58.000Z,19.78
2023-04-16T11:16:51.828Z,20.12
2023-04-16T11:19:46.926Z,19.86
2023-04-16T11:22:41.212Z,19.83
2023-04-16T11:25:35.499Z,19.78
2023-04-16T11:28:39.461Z,19.79
2023-04-16T11:31:33.578Z,20.36
2023-04-16T11:34:27.455Z,20.33
2023-04-16T11:37:32.285Z,20.23
2023-04-16T11:40:26.474Z,20.37
2023-04-16T11:43:20.793Z,20.31
2023-04-16T11:46:24.596Z,20.14
2023-04-16T11:49:31.801Z,20.54
2023-04-16T11:52:33.855Z,20.50
2023-04-16T11:55:27.877Z,20.25
2023-04-16T11:58:23.376Z,20.51
2023-04-16T12:01:40.608Z,20.31
2023-04-16T12:04:36.200Z,20.69
2023-04-16T12:07:15.960Z,20.63
2023-04-16T12:10:14.260Z,20.56
2023-04-16T12:13:18.707Z,20.55
2023-04-16T12:16:22.574Z,20.70
2023-04-16T12:19:16.982Z,20.28
2023-04-16T12:22:10.822Z,20.48
2023-04-16T12:25:06.113Z,20.47
2023-04-16T12:27:59.878Z,20.05
2023-04-16T12:30:54.861Z,20.34
2023-04-16T12:34:10.161Z,20.25
2023-04-16T12:37:10.971Z,20.38
2023-04-16T12:40:05.908Z,20.56
2023-04-16T12:42:59.865Z,20.44
2023-04-16T12:45:54.174Z,20.36
2023-04-16T12:48:49.752Z,20.40
2023-04-16T12:51:43.649Z,20.33
2023-04-16T12:54:39.466Z,20.16
2023-04-16T12:57:33.434Z,20.09
2023-04-16T13:00:27.655Z,20.29
2023-04-16T13:03:21.999Z,20.37
2023-04-16T13:06:17.689Z,20.45
2023-04-16T13:09:12.294Z,20.25
2023-04-16T13:12:07.082Z,20.26
2023-04-16T13:15:00.896Z,20.30
2023-04-16T13:17:54.582Z,20.31
2023-04-16T13:20:48.350Z,20.32
2023-04-16T13:23:42.431Z,20.29
2023-04-16T13:26:36.123Z,20.29
2023-04-16T13:29:30.009Z,20.42
2023-04-16T13:32:23.973Z,20.50
2023-04-16T13:35:18.144Z,20.27
2023-04-16T13:38:12.219Z,20.22
2023-04-16T13:41:06.133Z,20.42
2023-04-16T13:43:59.715Z,20.30
2023-04-16T13:46:37.494Z,20.22
2023-04-16T13:49:35.484Z,20.02
2023-04-16T13:52:29.649Z,19.86
2023-04-16T13:55:23.405Z,19.94
2023-04-16T13:58:17.467Z,20.48
2023-04-16T14:01:12.299Z,20.38
2023-04-16T14:04:08.251Z,20.66
2023-04-16T14:07:02.084Z,20.70
2023-04-16T14:09:55.949Z,20.81
2023-04-16T14:12:49.829Z,20.68
2023-04-16T14:15:43.584Z,20.43
2023-04-16T14:18:41.856Z,20.28
2023-04-16T14:21:35.896Z,20.30
2023-04-16T14:24:29.595Z,20.26
2023-04-16T14:27:23.433Z,20.40
2023-04-16T14:30:17.681Z,20.55
2023-04-16T14:33:11.355Z,20.56
2023-04-16T14:36:05.786Z,20.17
2023-04-16T14:38:59.672Z,20.29
2023-04-16T14:41:53.492Z,20.41
2023-04-16T14:44:47.483Z,20.40
2023-04-16T14:47:46.015Z,20.49
2023-04-16T14:50:48.198Z,20.74
2023-04-16T14:53:42.568Z,20.50
2023-04-16T14:56:36.462Z,20.58
2023-04-16T14:59:30.447Z,20.31
2023-04-16T15:02:24.215Z,20.12
2023-04-16T15:05:17.972Z,20.54
2023-04-16T15:08:12.221Z,20.44
2023-04-16T15:11:05.845Z,20.52
2023-04-16T15:13:59.868Z,20.47
2023-04-16T15:16:54.149Z,20.56
2023-04-16T15:19:47.814Z,20.51
2023-04-16T15:22:41.847Z,20.57
2023-04-16T15:25:35.745Z,20.53
2023-04-16T15:28:29.340Z,20.50
2023-04-16T15:31:23.220Z,20.44
2023-04-16T15:34:17.010Z,20.49
2023-04-16T15:37:10.917Z,20.54
2023-04-16T15:40:05.722Z,20.50
2023-04-16T15:43:00.471Z,20.53
2023-04-16T15:45:54.153Z,20.45
2023-04-16T15:48:47.857Z,20.37
2023-04-16T15:51:41.890Z,20.56
2023-04-16T15:54:35.650Z,20.60
2023-04-16T15:57:29.776Z,20.55
2023-04-16T16:00:23.975Z,20.49
2023-04-16T16:03:18.552Z,20.51
2023-04-16T16:06:13.563Z,20.58
2023-04-16T16:09:08.138Z,20.62
2023-04-16T16:12:02.288Z,20.73
2023-04-16T16:14:56.693Z,20.81
2023-04-16T16:17:52.764Z,20.66
2023-04-16T16:20:46.919Z,20.88
2023-04-16T16:23:40.694Z,20.79
2023-04-16T16:26:34.647Z,20.66
2023-04-16T16:29:28.603Z,20.66
2023-04-16T16:32:22.837Z,20.45
2023-04-16T16:35:16.897Z,20.32
2023-04-16T16:38:11.311Z,20.27
2023-04-16T16:41:05.922Z,20.17
2023-04-16T16:43:59.776Z,19.99
2023-04-16T16:46:53.998Z,20.12
2023-04-16T16:49:47.845Z,20.22
2023-04-16T16:52:41.823Z,20.49
2023-04-16T16:55:36.142Z,20.92
2023-04-16T16:58:31.545Z,20.85
2023-04-16T17:01:26.090Z,20.74
2023-04-16T17:04:20.468Z,20.85
2023-04-16T17:07:14.576Z,20.78
2023-04-16T17:10:11.174Z,21.00
2023-04-16T17:13:08.565Z,20.66
2023-04-16T17:16:02.411Z,20.57
2023-04-16T17:18:57.513Z,20.67
2023-04-16T17:21:51.985Z,20.66
2023-04-16T17:24:45.806Z,20.88
2023-04-16T17:27:39.653Z,20.81
2023-04-16T17:30:34.525Z,21.09
2023-04-16T17:33:28.321Z,20.90
2023-04-16T17:36:23.042Z,20.66
2023-04-16T17:39:17.074Z,21.13
2023-04-16T17:42:10.981Z,20.98
2023-04-16T17:45:05.351Z,20.74
2023-04-16T17:47:59.046Z,20.72
2023-04-16T17:50:53.191Z,20.75
2023-04-16T17:53:46.847Z,20.67
2023-04-16T17:56:40.647Z,20.69
2023-04-16T17:59:34.635Z,20.62
2023-04-16T18:02:28.548Z,20.62
2023-04-16T18:05:22.262Z,20.72
2023-04-16T18:08:15.918Z,20.87
2023-04-16T18:11:11.946Z,20.70
2023-04-16T18:14:05.705Z,20.64
2023-04-16T18:16:59.855Z,20.66
2023-04-16T18:19:53.543Z,20.70
2023-04-16T18:22:47.434Z,20.66
2023-04-16T18:25:41.782Z,20.65
2023-04-16T18:28:35.979Z,20.64
2023-04-16T18:31:29.892Z,20.65
2023-04-16T18:34:25.473Z,20.61
2023-04-16T18:37:19.245Z,20.56
2023-04-16T18:40:15.348Z,20.75
2023-04-16T18:43:09.101Z,20.98
2023-04-16T18:46:05.452Z,20.89
2023-04-16T18:48:59.997Z,20.63
2023-04-16T18:51:55.754Z,20.56
2023-04-16T18:54:49.698Z,20.55
2023-04-16T18:57:43.572Z,20.71
2023-04-16T19:00:37.518Z,20.60
2023-04-16T19:04:19.298Z,20.57
2023-04-16T19:06:48.241Z,20.61
2023-04-16T19:09:41.977Z,20.60
2023-04-16T19:12:36.425Z,20.56
2023-04-16T19:15:32.066Z,20.54
2023-04-16T19:18:27.226Z,20.59
2023-04-16T19:21:21.067Z,20.54
2023-04-16T19:24:14.791Z,20.43
2023-04-16T19:27:08.419Z,20.54
2023-04-16T19:30:02.921Z,20.55
2023-04-16T19:32:56.640Z,20.63
2023-04-16T19:35:50.770Z,20.79
2023-04-16T19:38:44.424Z,20.62
2023-04-16T19:41:38.203Z,20.81
2023-04-16T19:44:32.608Z,21.02
2023-04-16T19:47:26.281Z,20.68
2023-04-16T19:50:20.694Z,20.53
2023-04-16T19:53:16.863Z,20.58
2023-04-16T19:56:10.889Z,20.54
2023-04-16T19:59:04.483Z,20.56
2023-04-16T20:01:58.244Z,20.64
2023-04-16T20:04:53.379Z,20.74
2023-04-16T20:07:52.015Z,20.53
2023-04-16T20:10:46.539Z,20.69
2023-04-16T20:13:40.237Z,20.81
2023-04-16T20:16:33.974Z,20.63
2023-04-16T20:19:31.565Z,20.88
2023-04-16T20:22:25.198Z,21.22
2023-04-16T20:25:20.401Z,21.16
2023-04-16T20:28:21.089Z,21.09
2023-04-16T20:31:15.550Z,20.68
2023-04-16T20:34:09.228Z,21.04
2023-04-16T20:37:02.929Z,20.74
2023-04-16T20:39:56.559Z,20.71
2023-04-16T20:42:52.078Z,20.92
2023-04-16T20:45:46.194Z,21.07
2023-04-16T20:48:40.339Z,21.26
2023-04-16T20:51:34.030Z,21.18
2023-04-16T20:54:32.279Z,21.30
2023-04-16T20:57:28.041Z,21.47
2023-04-16T21:00:22.804Z,21.47
2023-04-16T21:03:16.709Z,21.20
2023-04-16T21:06:32.855Z,21.18
2023-04-16T21:09:27.050Z,21.29
2023-04-16T21:12:21.214Z,21.12
2023-04-16T21:15:15.880Z,20.93
2023-04-16T21:18:10.042Z,20.95
2023-04-16T21:21:03.783Z,20.75
2023-04-16T21:23:57.778Z,20.63
2023-04-16T21:26:51.362Z,20.61
2023-04-16T21:29:45.098Z,20.70
2023-04-16T21:32:39.221Z,20.90
2023-04-16T21:35:35.472Z,20.73
2023-04-16T21:38:29.183Z,20.69
2023-04-16T21:41:22.886Z,20.65
2023-04-16T21:44:16.585Z,20.85
2023-04-16T21:47:10.335Z,20.88
2023-04-16T21:50:04.040Z,20.99
2023-04-16T21:52:57.676Z,21.03
2023-04-16T21:55:51.362Z,21.02
2023-04-16T21:58:45.094Z,20.89
2023-04-16T22:01:38.887Z,20.91
2023-04-16T22:04:38.927Z,20.95
2023-04-16T22:07:32.758Z,21.11
2023-04-16T22:10:26.581Z,20.97
2023-04-16T22:13:20.283Z,20.71
2023-04-16T22:16:14.150Z,20.82
2023-04-16T22:19:07.970Z,20.76
2023-04-16T22:22:01.703Z,20.67
2023-04-16T22:24:55.701Z,20.59
2023-04-16T22:27:49.376Z,20.58
2023-04-16T22:30:43.054Z,20.59
2023-04-16T22:33:36.713Z,20.56
2023-04-16T22:36:30.942Z,20.61
2023-04-16T22:39:24.593Z,20.72
2023-04-16T22:42:18.384Z,20.70
2023-04-16T22:45:13.887Z,20.82
2023-04-16T22:48:07.980Z,20.80
2023-04-16T22:51:02.060Z,20.71
2023-04-16T22:53:56.381Z,20.68
2023-04-16T22:56:50.518Z,20.68
2023-04-16T22:59:44.433Z,20.73
2023-04-16T23:02:38.417Z,20.77
2023-04-16T23:05:32.827Z,20.80
2023-04-16T23:08:26.714Z,20.87
2023-04-16T23:11:20.326Z,20.87
2023-04-16T23:14:16.796Z,20.96
2023-04-16T23:17:10.701Z,20.88
2023-04-16T23:20:07.517Z,20.82
2023-04-16T23:23:01.431Z,20.78
2023-04-16T23:25:57.847Z,20.80
2023-04-16T23:28:51.722Z,20.82
2023-04-16T23:31:45.390Z,20.87
2023-04-16T23:34:39.090Z,20.83
2023-04-16T23:37:32.842Z,20.84
2023-04-16T23:40:26.822Z,20.83
2023-04-16T23:43:20.412Z,20.94
2023-04-16T23:46:14.297Z,20.87
2023-04-16T23:49:08.555Z,20.88
2023-04-16T23:52:02.338Z,20.84
2023-04-16T23:54:56.206Z,20.93
2023-04-16T23:57:49.914Z,20.94
